sensor_id;sensor_type;location;lat;lon;timestamp;pressure;altitude;pressure_sealevel;temperature
18474;BMP180;30265;52.408;13.500;2022-09-14T12:23:41;100288.00;;;20.00
18474;BMP180;30265;52.408;13.500;2022-09-14T12:44:45;100286.00;;;20.30
18474;BMP180;30265;52.408;13.500;2022-09-14T12:55:32;100267.00;;;21.20
18474;BMP180;30265;52.408;13.500;2022-09-14T13:05:57;100264.00;;;21.20
18474;BMP180;30265;52.408;13.500;2022-09-14T13:16:27;100232.00;;;20.70
18474;BMP180;30265;52.408;13.500;2022-09-14T13:26:54;100221.00;;;21.00
18474;BMP180;30265;52.408;13.500;2022-09-14T13:37:16;100225.00;;;21.30
18474;BMP180;30265;52.408;13.500;2022-09-14T13:47:40;100212.00;;;20.90
18474;BMP180;30265;52.408;13.500;2022-09-14T13:58:11;100223.00;;;21.00
18474;BMP180;30265;52.408;13.500;2022-09-14T14:08:36;100194.00;;;20.40
18474;BMP180;30265;52.408;13.500;2022-09-14T14:18:58;100182.00;;;20.20
18474;BMP180;30265;52.408;13.500;2022-09-14T14:29:21;100179.00;;;20.50
18474;BMP180;30265;52.408;13.500;2022-09-14T14:39:43;100178.00;;;20.10
18474;BMP180;30265;52.408;13.500;2022-09-14T14:50:14;100181.00;;;20.20
18474;BMP180;30265;52.408;13.500;2022-09-14T15:00:36;100182.00;;;20.20
18474;BMP180;30265;52.408;13.500;2022-09-14T15:10:59;100177.00;;;20.10
18474;BMP180;30265;52.408;13.500;2022-09-14T15:21:21;100158.00;;;19.80
18474;BMP180;30265;52.408;13.500;2022-09-14T15:31:44;100169.00;;;19.70
18474;BMP180;30265;52.408;13.500;2022-09-14T15:42:06;100160.00;;;19.70
18474;BMP180;30265;52.408;13.500;2022-09-14T15:52:29;100151.00;;;19.40
18474;BMP180;30265;52.408;13.500;2022-09-14T16:02:51;100153.00;;;19.00
18474;BMP180;30265;52.408;13.500;2022-09-14T16:13:14;100163.00;;;18.90
18474;BMP180;30265;52.408;13.500;2022-09-14T16:23:41;100158.00;;;18.70
18474;BMP180;30265;52.408;13.500;2022-09-14T16:34:07;100150.00;;;18.90
18474;BMP180;30265;52.408;13.500;2022-09-14T16:44:29;100168.00;;;18.50
18474;BMP180;30265;52.408;13.500;2022-09-14T16:54:52;100156.00;;;18.40
18474;BMP180;30265;52.408;13.500;2022-09-14T17:05:15;100156.00;;;18.30
18474;BMP180;30265;52.408;13.500;2022-09-14T17:15:38;100140.00;;;18.20
18474;BMP180;30265;52.408;13.500;2022-09-14T17:26:02;100142.00;;;18.20
18474;BMP180;30265;52.408;13.500;2022-09-14T17:36:26;100130.00;;;18.10
18474;BMP180;30265;52.408;13.500;2022-09-14T17:46:51;100133.00;;;18.10
18474;BMP180;30265;52.408;13.500;2022-09-14T17:57:20;100129.00;;;17.90
18474;BMP180;30265;52.408;13.500;2022-09-14T18:07:42;100128.00;;;18.00
18474;BMP180;30265;52.408;13.500;2022-09-14T18:18:05;100109.00;;;17.80
18474;BMP180;30265;52.408;13.500;2022-09-14T18:28:27;100109.00;;;17.80
18474;BMP180;30265;52.408;13.500;2022-09-14T18:38:50;100094.00;;;17.80
18474;BMP180;30265;52.408;13.500;2022-09-14T18:49:12;100110.00;;;17.40
18474;BMP180;30265;52.408;13.500;2022-09-14T18:59:36;100113.00;;;17.50
18474;BMP180;30265;52.408;13.500;2022-09-14T19:09:57;100096.00;;;17.80
18474;BMP180;30265;52.408;13.500;2022-09-14T19:20:21;100102.00;;;17.60
18474;BMP180;30265;52.408;13.500;2022-09-14T19:30:42;100094.00;;;17.50
18474;BMP180;30265;52.408;13.500;2022-09-14T19:41:06;100116.00;;;17.20
18474;BMP180;30265;52.408;13.500;2022-09-14T19:51:29;100108.00;;;17.20
18474;BMP180;30265;52.408;13.500;2022-09-14T20:01:52;100110.00;;;17.20
18474;BMP180;30265;52.408;13.500;2022-09-14T20:12:14;100099.00;;;17.10
18474;BMP180;30265;52.408;13.500;2022-09-14T20:22:37;100092.00;;;16.90
18474;BMP180;30265;52.408;13.500;2022-09-14T20:32:59;100097.00;;;16.70
18474;BMP180;30265;52.408;13.500;2022-09-14T20:53:46;100097.00;;;16.10
18474;BMP180;30265;52.408;13.500;2022-09-14T21:04:10;100109.00;;;16.20
18474;BMP180;30265;52.408;13.500;2022-09-14T21:14:34;100103.00;;;16.10
18474;BMP180;30265;52.408;13.500;2022-09-14T21:24:55;100107.00;;;16.10
18474;BMP180;30265;52.408;13.500;2022-09-14T21:35:19;100105.00;;;15.80
18474;BMP180;30265;52.408;13.500;2022-09-14T21:45:43;100107.00;;;15.70
18474;BMP180;30265;52.408;13.500;2022-09-14T21:56:07;100108.00;;;15.60
18474;BMP180;30265;52.408;13.500;2022-09-14T22:06:30;100098.00;;;15.50
18474;BMP180;30265;52.408;13.500;2022-09-14T22:16:54;100086.00;;;15.40
18474;BMP180;30265;52.408;13.500;2022-09-14T22:27:15;100094.00;;;15.10
18474;BMP180;30265;52.408;13.500;2022-09-14T22:37:38;100090.00;;;15.20
18474;BMP180;30265;52.408;13.500;2022-09-14T22:48:00;100067.00;;;15.20
18474;BMP180;30265;52.408;13.500;2022-09-14T22:58:26;100089.00;;;14.90
18474;BMP180;30265;52.408;13.500;2022-09-14T23:08:49;100084.00;;;15.00
18474;BMP180;30265;52.408;13.500;2022-09-14T23:19:13;100076.00;;;14.90
18474;BMP180;30265;52.408;13.500;2022-09-14T23:29:35;100079.00;;;15.00
18474;BMP180;30265;52.408;13.500;2022-09-14T23:39:58;100081.00;;;14.90
18474;BMP180;30265;52.408;13.500;2022-09-14T23:50:20;100067.00;;;14.90
